Airfield :
LOGIN :

Register | Disclaimer

   EN    FR    IT 

 










Legend :    VFR   Marginal VFR   IFR   Intensive IFR   Very Intensive IFR
Visi :
Ceiling :
>= 8 km
>= 3000ft
5 to 8 km
1000 to 3000 ft
1500m to 5 km
500 to 1000 ft
800 to 1500m
200 to 500 ft
< 800m
< 200 ft
Symbols :   Thunderstorms  Fog  Heavy snow  Heavy precipitations  Wind > 20 kt
SIGMETs :     Misc.  Thunderstorms  Icing  Turbulence  Mountain Waves  Volcanic Ashes






- Airport Elevation : 112 ft
- IATA code : KIR


EIKY - Kerry Farranfore

CURRENT METAR :
  • 281500Z 16015G26KT 120V180 CAVOK 22/12 Q1027

EXPIRED METARs :
  • 281430Z 15016KT 120V190 CAVOK 22/12 Q1027
  • 281400Z 15013KT 120V210 CAVOK 22/12 Q1027
  • 281330Z 13017KT CAVOK 24/12 Q1028
  • 281300Z 15016G27KT CAVOK 23/12 Q1028
  • 281230Z 14016KT 110V170 CAVOK 22/12 Q1028

TAF TAF EIKY
Valid from the 28 at 15:00 until the 29 at 00:00 UTC


281400Z 2815/2824 14014KT 9999 FEW040
TEMPO 2815/2820 14015G26KT



MET'MAP, your aeronautical weather chart ! - Copyright ORBIFLY December 2007 - Disclaimer

ORBIFLY MET'MAP TEAM :

Programming & Development : Alexandra Zaïnal
Concept & original design : Baudouin d'Aumeries
Assistance for programming : Marc-Olivier Méhu
Technical & hardware support : Manuel Goepfert

Contact : metmap@orbifly.com




SOURCES & CREDITS :

   NOAA